Time;durP1;ratioP1;P1;durP2;ratioP2;P2;SDS_P1;SDS_P2;PMS_P1;PMS_P2;Temp;Humidity;BMP_temperature;BMP_pressure;BME280_temperature;BME280_humidity;BME280_pressure;Samples;Min_cycle;Max_cycle;Signal;HPM_P1;HPM_P2
2022/03/13 00:02:19;;;;;;;52.30;29.40;;;;;;;2.11;33.30;101331.34;107288;1271;137709;-73
2022/03/13 00:04:54;;;;;;;46.90;27.50;;;;;;;2.07;33.46;101328.00;107597;1271;109717;-74
2022/03/13 00:07:28;;;;;;;50.90;28.30;;;;;;;2.03;33.24;101327.58;107657;1271;107871;-73
2022/03/13 00:10:00;;;;;;;44.50;27.10;;;;;;;2.01;33.32;101326.34;107533;1271;139248;-74
2022/03/13 00:12:32;;;;;;;44.50;26.30;;;;;;;1.99;33.34;101326.11;107066;1273;97850;-72
2022/03/13 00:15:12;;;;;;;49.60;27.80;;;;;;;1.97;33.37;101324.51;105832;1271;137677;-74
2022/03/13 00:17:44;;;;;;;47.30;26.90;;;;;;;1.93;33.36;101320.66;107719;1271;111409;-73
2022/03/13 00:20:17;;;;;;;49.10;27.00;;;;;;;1.91;33.41;101323.21;107531;1271;139565;-73
2022/03/13 00:22:49;;;;;;;49.00;25.90;;;;;;;1.89;33.39;101324.71;107597;1271;108385;-74
2022/03/13 00:25:21;;;;;;;47.20;27.30;;;;;;;1.88;33.34;101323.66;107584;1271;96311;-73
2022/03/13 00:27:53;;;;;;;43.60;26.90;;;;;;;1.87;33.50;101327.08;107483;1271;138697;-74
2022/03/13 00:30:26;;;;;;;46.70;27.00;;;;;;;1.87;33.57;101329.29;107547;1269;111780;-73
2022/03/13 00:33:00;;;;;;;47.70;26.20;;;;;;;1.86;33.58;101321.91;107471;1271;137844;-74
2022/03/13 00:35:33;;;;;;;45.80;26.20;;;;;;;1.84;33.66;101322.56;107543;1271;107752;-74
2022/03/13 00:38:05;;;;;;;47.50;27.50;;;;;;;1.82;33.69;101319.95;107586;1271;96238;-74
2022/03/13 00:40:38;;;;;;;46.00;26.00;;;;;;;1.81;33.87;101317.88;107528;1271;139318;-74
2022/03/13 00:43:10;;;;;;;47.70;26.50;;;;;;;1.80;33.92;101321.96;106271;1271;111606;-74
2022/03/13 00:45:42;;;;;;;45.70;26.70;;;;;;;1.79;33.88;101317.65;105871;1271;137989;-73
2022/03/13 00:48:15;;;;;;;45.30;25.60;;;;;;;1.78;34.00;101312.48;105969;1271;108671;-74
2022/03/13 00:50:47;;;;;;;45.80;26.60;;;;;;;1.76;34.04;101313.13;106238;1271;138029;-74
2022/03/13 00:53:20;;;;;;;44.10;26.60;;;;;;;1.75;33.91;101312.58;107531;1271;96949;-75
2022/03/13 00:55:52;;;;;;;44.30;25.70;;;;;;;1.74;33.89;101313.76;107601;1271;112171;-75
2022/03/13 00:58:27;;;;;;;45.10;25.80;;;;;;;1.72;33.98;101314.94;107420;1271;138340;-75
2022/03/13 01:01:01;;;;;;;45.00;26.10;;;;;;;1.71;33.98;101316.97;106185;1273;109381;-76
2022/03/13 01:03:49;;;;;;;43.80;24.80;;;;;;;1.71;34.08;101314.56;105812;1271;137893;-74
2022/03/13 01:06:23;;;;;;;45.50;24.80;;;;;;;1.70;33.93;101310.61;107599;1271;96201;-74
2022/03/13 01:08:55;;;;;;;42.80;24.10;;;;;;;1.69;33.94;101309.90;107564;1271;137823;-74
2022/03/13 01:11:28;;;;;;;45.90;25.60;;;;;;;1.68;33.99;101307.30;107598;1271;108464;-74
2022/03/13 01:14:00;;;;;;;41.10;24.20;;;;;;;1.66;34.04;101311.05;107666;1271;108879;-74
2022/03/13 01:16:37;;;;;;;43.70;25.30;;;;;;;1.64;34.13;101308.96;107402;1271;137618;-74
2022/03/13 01:19:10;;;;;;;47.80;25.10;;;;;;;1.63;34.28;101306.70;107507;1271;96009;-74
2022/03/13 01:21:46;;;;;;;44.50;24.20;;;;;;;1.62;34.23;101308.38;107392;1271;137811;-74
2022/03/13 01:24:27;;;;;;;49.00;25.70;;;;;;;1.61;34.31;101308.52;107490;1271;108996;-74
2022/03/13 01:27:04;;;;;;;47.70;24.20;;;;;;;1.59;34.16;101302.98;107413;1270;139729;-73
2022/03/13 01:29:36;;;;;;;47.70;25.40;;;;;;;1.60;34.29;101300.94;107569;1271;96654;-74
2022/03/13 01:32:12;;;;;;;49.90;26.20;;;;;;;1.58;34.30;101299.54;107606;1271;96161;-74
2022/03/13 01:34:47;;;;;;;52.30;26.80;;;;;;;1.57;34.34;101295.58;107556;1271;137711;-74
2022/03/13 01:37:29;;;;;;;49.20;25.10;;;;;;;1.55;34.41;101295.89;107677;1271;108954;-74
2022/03/13 01:40:10;;;;;;;45.10;24.90;;;;;;;1.55;34.40;101294.33;107478;1271;137852;-74
2022/03/13 01:42:44;;;;;;;48.90;25.60;;;;;;;1.53;34.34;101296.54;107679;1271;96221;-74
2022/03/13 01:45:19;;;;;;;43.20;24.40;;;;;;;1.51;34.52;101294.25;107550;1273;139141;-73
2022/03/13 01:47:51;;;;;;;44.90;25.10;;;;;;;1.49;34.59;101294.73;107565;1271;111187;-74
2022/03/13 01:50:24;;;;;;;48.80;25.70;;;;;;;1.48;34.50;101294.54;107464;1271;138847;-73
2022/03/13 01:52:56;;;;;;;48.20;26.50;;;;;;;1.46;34.63;101289.88;107552;1271;107755;-74
2022/03/13 01:55:28;;;;;;;47.00;26.10;;;;;;;1.44;34.65;101290.88;107532;1271;96425;-74
2022/03/13 01:58:02;;;;;;;45.70;24.50;;;;;;;1.43;34.62;101285.36;107510;1271;138977;-74
2022/03/13 02:04:05;;;;;;;43.60;25.00;;;;;;;1.39;34.63;101286.79;106874;1276;137693;-73
2022/03/13 02:06:38;;;;;;;46.50;25.70;;;;;;;1.37;34.71;101287.44;107172;1276;108879;-74
2022/03/13 02:09:12;;;;;;;44.70;25.80;;;;;;;1.36;34.68;101287.92;107129;1276;138501;-74
2022/03/13 02:11:44;;;;;;;46.30;26.30;;;;;;;1.35;34.72;101289.96;107273;1276;96180;-75
2022/03/13 02:14:21;;;;;;;47.10;25.00;;;;;;;1.33;34.81;101286.85;107139;1278;111340;-75
2022/03/13 02:16:54;;;;;;;52.60;26.70;;;;;;;1.33;34.72;101288.89;107132;1276;138675;-72
2022/03/13 02:19:26;;;;;;;44.40;25.90;;;;;;;1.31;34.82;101290.57;107227;1276;108072;-72
2022/03/13 02:22:01;;;;;;;44.70;25.10;;;;;;;1.29;34.88;101287.78;107080;1277;138004;-74
2022/03/13 02:24:34;;;;;;;47.30;26.90;;;;;;;1.27;34.92;101289.46;107223;1277;96084;-72
2022/03/13 02:27:09;;;;;;;49.00;26.80;;;;;;;1.26;35.05;101294.39;107187;1276;138384;-73
2022/03/13 02:29:41;;;;;;;50.50;26.90;;;;;;;1.25;35.07;101295.04;107417;1276;109010;-73
2022/03/13 02:32:14;;;;;;;46.10;26.30;;;;;;;1.23;35.06;101296.37;107293;1276;109475;-76
2022/03/13 02:34:47;;;;;;;47.20;27.20;;;;;;;1.24;35.08;101295.02;107235;1276;138053;-75
2022/03/13 02:37:35;;;;;;;54.10;27.50;;;;;;;1.23;35.17;101297.39;107305;1276;96345;-74
2022/03/13 02:40:15;;;;;;;49.10;28.60;;;;;;;1.21;35.18;101301.80;107191;1276;138562;-73
2022/03/13 02:42:47;;;;;;;48.80;28.10;;;;;;;1.20;35.19;101299.05;107329;1276;109186;-75
2022/03/13 02:45:30;;;;;;;46.30;26.40;;;;;;;1.17;35.13;101300.72;107184;1276;138372;-74
2022/03/13 02:48:05;;;;;;;51.60;28.20;;;;;;;1.16;35.21;101299.14;107402;1276;96007;-74
2022/03/13 02:50:38;;;;;;;52.70;27.20;;;;;;;1.14;35.29;101298.08;107201;1276;138339;-72
2022/03/13 02:53:10;;;;;;;47.70;27.60;;;;;;;1.13;35.33;101297.20;107344;1275;112612;-74
2022/03/13 02:55:42;;;;;;;49.70;26.70;;;;;;;1.13;35.53;101294.96;107389;1276;109224;-72
2022/03/13 02:58:19;;;;;;;44.90;26.30;;;;;;;1.12;35.64;101291.52;107271;1276;138754;-73
2022/03/13 03:00:53;;;;;;;47.60;26.90;;;;;;;1.11;35.51;101290.65;107282;1276;96324;-73
2022/03/13 03:03:26;;;;;;;45.80;27.10;;;;;;;1.09;35.53;101290.44;107241;1276;139107;-74
2022/03/13 03:05:58;;;;;;;51.30;26.50;;;;;;;1.11;35.65;101290.46;107214;1277;113761;-75
2022/03/13 03:08:30;;;;;;;47.90;28.10;;;;;;;1.11;35.66;101288.25;107367;1276;106690;-73
2022/03/13 03:11:02;;;;;;;49.70;29.20;;;;;;;1.12;35.52;101288.61;107276;1276;137814;-73
2022/03/13 03:13:34;;;;;;;55.90;29.20;;;;;;;1.12;35.69;101282.77;107392;1275;96183;-74
2022/03/13 03:16:07;;;;;;;53.10;28.10;;;;;;;1.11;35.64;101283.80;107286;1276;137761;-74
2022/03/13 03:18:40;;;;;;;51.70;28.40;;;;;;;1.11;35.64;101286.54;107355;1276;113146;-74
2022/03/13 03:21:13;;;;;;;46.10;27.70;;;;;;;1.11;35.81;101286.36;107320;1276;138929;-74
2022/03/13 03:23:45;;;;;;;55.40;29.20;;;;;;;1.12;35.83;101284.15;107330;1276;108843;-74
2022/03/13 03:26:17;;;;;;;54.40;29.30;;;;;;;1.11;36.12;101280.38;107370;1276;96486;-73
2022/03/13 03:28:49;;;;;;;49.70;28.50;;;;;;;1.11;36.15;101281.23;107212;1276;138109;-75
2022/03/13 03:31:20;;;;;;;54.00;29.30;;;;;;;1.12;36.27;101276.80;107393;1276;110990;-74
2022/03/13 03:33:53;;;;;;;51.70;29.50;;;;;;;1.13;36.34;101275.61;107317;1276;137804;-73
2022/03/13 03:36:25;;;;;;;51.50;27.50;;;;;;;1.14;36.31;101277.17;107352;1276;109251;-73
2022/03/13 03:38:57;;;;;;;49.90;28.80;;;;;;;1.16;36.34;101280.13;107251;1276;139258;-75
2022/03/13 03:41:29;;;;;;;52.30;29.70;;;;;;;1.17;36.42;101278.10;107420;1276;96190;-74
2022/03/13 03:44:01;;;;;;;54.20;29.60;;;;;;;1.17;36.57;101279.81;107428;1276;111497;-72
2022/03/13 03:46:34;;;;;;;55.80;29.90;;;;;;;1.18;36.52;101279.33;107313;1275;139034;-74
2022/03/13 03:49:06;;;;;;;56.00;31.40;;;;;;;1.18;36.76;101278.29;107368;1276;106422;-74
2022/03/13 03:51:39;;;;;;;55.40;30.80;;;;;;;1.17;37.00;101272.95;107243;1276;138570;-73
2022/03/13 03:54:12;;;;;;;54.80;30.90;;;;;;;1.16;37.08;101273.97;107397;1276;96176;-74
2022/03/13 03:56:44;;;;;;;56.90;32.50;;;;;;;1.16;37.10;101278.76;107262;1275;138238;-73
2022/03/13 03:59:20;;;;;;;61.00;31.50;;;;;;;1.15;37.06;101274.64;107423;1276;107229;-75
2022/03/13 04:01:52;;;;;;;60.70;30.90;;;;;;;1.14;37.13;101267.24;107307;1276;109057;-74
2022/03/13 04:04:24;;;;;;;55.20;30.70;;;;;;;1.13;37.25;101261.91;107239;1276;139010;-73
2022/03/13 04:06:56;;;;;;;57.20;31.20;;;;;;;1.16;37.24;101272.25;107381;1276;97594;-73
2022/03/13 04:09:28;;;;;;;55.00;30.20;;;;;;;1.19;37.28;101271.80;107334;1276;137905;-73
2022/03/13 04:12:01;;;;;;;52.20;30.30;;;;;;;1.22;37.08;101265.19;107414;1276;107781;-74
2022/03/13 04:14:33;;;;;;;61.20;30.30;;;;;;;1.22;37.24;101268.60;107438;1275;109487;-75
2022/03/13 04:17:05;;;;;;;54.00;30.00;;;;;;;1.23;37.34;101271.70;107350;1276;138073;-74
2022/03/13 04:19:37;;;;;;;61.40;31.70;;;;;;;1.25;37.28;101268.14;107394;1276;96011;-74
2022/03/13 04:22:09;;;;;;;56.20;30.90;;;;;;;1.24;37.32;101267.79;107284;1276;137867;-73
2022/03/13 04:24:42;;;;;;;53.10;29.50;;;;;;;1.22;37.43;101264.31;107426;1275;107907;-74
2022/03/13 04:27:14;;;;;;;55.20;30.10;;;;;;;1.20;37.28;101266.86;107310;1276;138119;-74
2022/03/13 04:29:47;;;;;;;57.70;31.40;;;;;;;1.20;37.24;101268.40;107343;1276;97602;-74
2022/03/13 04:32:22;;;;;;;58.90;31.40;;;;;;;1.22;37.63;101272.54;107419;1276;96090;-74
2022/03/13 04:34:54;;;;;;;55.50;29.80;;;;;;;1.22;37.37;101269.63;107217;1276;139387;-74
2022/03/13 04:37:27;;;;;;;54.80;30.60;;;;;;;1.19;37.64;101270.78;107383;1276;108984;-74
2022/03/13 04:39:59;;;;;;;54.60;30.10;;;;;;;1.17;37.41;101269.52;107197;1276;139666;-74
2022/03/13 04:42:31;;;;;;;50.70;30.20;;;;;;;1.14;37.67;101267.92;107338;1276;96080;-73
2022/03/13 04:45:06;;;;;;;55.50;31.10;;;;;;;1.13;37.74;101270.46;107223;1276;138443;-74
2022/03/13 04:47:39;;;;;;;60.30;31.40;;;;;;;1.13;37.68;101271.32;107317;1276;111709;-74
2022/03/13 04:50:12;;;;;;;57.50;31.40;;;;;;;1.11;37.69;101271.98;107186;1278;108895;-74
2022/03/13 04:52:44;;;;;;;56.70;30.90;;;;;;;1.10;37.94;101270.75;107170;1276;140511;-74
2022/03/13 04:55:18;;;;;;;60.00;31.80;;;;;;;1.09;37.83;101278.61;107353;1276;96668;-73
2022/03/13 04:57:49;;;;;;;56.00;31.80;;;;;;;1.07;37.84;101279.75;107200;1276;137891;-74
2022/03/13 05:00:23;;;;;;;58.60;32.30;;;;;;;1.05;37.76;101274.73;107331;1276;111247;-74
2022/03/13 05:02:59;;;;;;;61.00;33.10;;;;;;;1.00;37.99;101283.70;107184;1276;138050;-73
2022/03/13 05:05:31;;;;;;;59.20;32.30;;;;;;;0.96;37.99;101281.39;107424;1275;106563;-74
2022/03/13 05:08:04;;;;;;;60.30;33.40;;;;;;;0.93;38.05;101276.17;107382;1276;95918;-74
2022/03/13 05:10:37;;;;;;;60.30;31.80;;;;;;;0.91;37.98;101276.66;107325;1276;138897;-74
2022/03/13 05:13:12;;;;;;;61.50;33.50;;;;;;;0.92;38.11;101276.16;107410;1276;111607;-74
2022/03/13 05:15:46;;;;;;;62.10;32.40;;;;;;;0.96;38.18;101278.48;107248;1276;137819;-74
2022/03/13 05:18:19;;;;;;;60.90;32.90;;;;;;;0.99;38.13;101279.21;107319;1276;108423;-74
2022/03/13 05:20:51;;;;;;;68.90;33.10;;;;;;;1.03;38.20;101282.58;107297;1275;138725;-74
2022/03/13 05:23:25;;;;;;;64.70;34.60;;;;;;;1.10;38.38;101286.16;107457;1276;96626;-74
2022/03/13 05:26:02;;;;;;;68.50;33.60;;;;;;;1.25;38.19;101287.34;107400;1276;111952;-75
2022/03/13 05:28:40;;;;;;;64.90;34.20;;;;;;;1.52;38.18;101287.08;107315;1276;138385;-74
2022/03/13 05:31:13;;;;;;;62.50;34.40;;;;;;;2.00;37.94;101292.02;107409;1275;107796;-74
2022/03/13 05:33:47;;;;;;;69.60;35.70;;;;;;;2.62;37.60;101288.66;107329;1276;138352;-74
2022/03/13 05:36:26;;;;;;;63.20;36.40;;;;;;;3.28;36.87;101292.95;107475;1275;96323;-74
2022/03/13 05:38:59;;;;;;;65.60;37.50;;;;;;;3.80;36.11;101294.16;107297;1276;138455;-74
2022/03/13 05:41:40;;;;;;;62.30;36.90;;;;;;;4.14;35.65;101291.29;107445;1276;107839;-74
2022/03/13 05:44:14;;;;;;;63.40;36.80;;;;;;;4.32;34.99;101295.61;107392;1275;108063;-74
2022/03/13 05:46:47;;;;;;;63.30;37.50;;;;;;;4.41;34.72;101295.86;107303;1276;137811;-73
2022/03/13 05:49:20;;;;;;;62.20;37.60;;;;;;;4.60;34.35;101287.42;107369;1277;96177;-73
2022/03/13 05:51:56;;;;;;;60.70;37.90;;;;;;;5.01;34.18;101283.61;107176;1277;138421;-74
2022/03/13 05:54:31;;;;;;;64.50;39.20;;;;;;;5.57;33.41;101289.47;107356;1276;108868;-74
2022/03/13 05:57:10;;;;;;;68.70;40.30;;;;;;;6.32;32.96;101293.57;107216;1276;137936;-74
2022/03/13 05:59:45;;;;;;;61.60;40.50;;;;;;;7.28;32.20;101290.09;107332;1276;96231;-74
2022/03/13 06:02:19;;;;;;;59.10;38.90;;;;;;;8.41;31.36;101286.66;107365;1276;96213;-75
2022/03/13 06:04:56;;;;;;;66.40;41.40;;;;;;;9.66;30.39;101280.85;107287;1276;137746;-75
2022/03/13 06:07:32;;;;;;;63.40;40.60;;;;;;;10.91;29.44;101279.05;107402;1276;110272;-75
2022/03/13 06:10:08;;;;;;;61.60;41.20;;;;;;;12.31;28.68;101276.63;107251;1276;138671;-75
2022/03/13 06:12:43;;;;;;;61.40;40.30;;;;;;;13.66;27.43;101267.23;107367;1276;97406;-74
2022/03/13 06:15:17;;;;;;;60.70;40.60;;;;;;;14.81;26.22;101260.89;107287;1275;138151;-74
2022/03/13 06:17:53;;;;;;;61.10;40.20;;;;;;;15.88;25.39;101261.67;107349;1276;112297;-74
2022/03/13 06:20:28;;;;;;;58.70;40.10;;;;;;;16.79;24.35;101256.09;107384;1275;108278;-75
2022/03/13 06:23:01;;;;;;;56.40;40.90;;;;;;;17.69;23.59;101256.93;107239;1275;138617;-75
2022/03/13 06:25:36;;;;;;;56.90;38.90;;;;;;;18.47;22.60;101250.61;107412;1276;96282;-75
2022/03/13 06:28:10;;;;;;;59.00;39.60;;;;;;;19.37;21.84;101249.39;107090;1276;138174;-75
2022/03/13 06:30:43;;;;;;;57.80;39.40;;;;;;;20.28;21.11;101248.16;107373;1276;111556;-75
2022/03/13 06:33:17;;;;;;;58.20;38.60;;;;;;;21.13;20.19;101244.92;107223;1276;138463;-75
2022/03/13 06:35:54;;;;;;;54.80;39.70;;;;;;;21.91;19.58;101248.61;107448;1276;108149;-74
2022/03/13 06:38:28;;;;;;;54.90;39.60;;;;;;;22.51;19.02;101247.60;107319;1277;96213;-75
2022/03/13 06:41:05;;;;;;;56.80;39.50;;;;;;;23.29;18.62;101253.44;107312;1277;137879;-76
2022/03/13 06:43:38;;;;;;;54.10;39.20;;;;;;;24.02;18.05;101254.34;107362;1276;111961;-76
2022/03/13 06:46:13;;;;;;;49.60;37.90;;;;;;;24.72;17.35;101251.34;107257;1276;138199;-75
2022/03/13 06:48:46;;;;;;;57.20;42.20;;;;;;;25.36;16.98;101253.64;107345;1276;108211;-75
2022/03/13 06:51:22;;;;;;;60.90;47.40;;;;;;;26.06;16.48;101249.90;107321;1276;139114;-75
2022/03/13 06:53:56;;;;;;;50.80;37.70;;;;;;;26.60;15.74;101253.27;106688;1276;97921;-76
2022/03/13 06:56:32;;;;;;;49.50;36.40;;;;;;;27.25;15.63;101254.92;105678;1278;112058;-68
2022/03/13 06:59:06;;;;;;;48.10;35.50;;;;;;;27.76;15.09;101254.52;105483;1277;138061;-75
2022/03/13 07:01:42;;;;;;;43.20;33.70;;;;;;;28.24;14.64;101252.96;105614;1277;107809;-75
2022/03/13 07:04:21;;;;;;;40.30;32.20;;;;;;;28.60;14.34;101248.05;105496;1276;138317;-75
2022/03/13 07:06:54;;;;;;;46.60;32.40;;;;;;;28.98;14.04;101246.46;105707;1276;97844;-75
2022/03/13 07:09:37;;;;;;;38.50;30.80;;;;;;;29.46;13.82;101249.82;105447;1276;137882;-73
2022/03/13 07:12:13;;;;;;;39.10;30.60;;;;;;;29.84;13.43;101249.90;105597;1278;111252;-74
2022/03/13 07:14:49;;;;;;;39.10;29.80;;;;;;;30.06;13.09;101246.28;105659;1277;138158;-72
2022/03/13 07:17:24;;;;;;;40.40;30.00;;;;;;;30.40;13.04;101247.88;107415;1276;96090;-74
2022/03/13 07:19:57;;;;;;;38.90;30.10;;;;;;;30.75;12.38;101248.55;107440;1276;96085;-74
2022/03/13 07:22:33;;;;;;;40.40;30.60;;;;;;;30.84;11.93;101255.19;107350;1277;137378;-74
2022/03/13 07:25:07;;;;;;;36.80;29.80;;;;;;;30.92;12.09;101252.17;107466;1276;108924;-74
2022/03/13 07:27:41;;;;;;;40.60;31.20;;;;;;;31.05;12.01;101252.69;107305;1277;138903;-75
2022/03/13 07:30:15;;;;;;;42.50;32.20;;;;;;;31.14;11.69;101259.40;107424;1276;97088;-74
2022/03/13 07:32:50;;;;;;;40.40;32.60;;;;;;;31.20;11.68;101259.86;107333;1277;138039;-75
2022/03/13 07:35:23;;;;;;;40.70;33.70;;;;;;;31.11;11.45;101258.88;107462;1277;111339;-75
2022/03/13 07:37:56;;;;;;;44.90;35.00;;;;;;;31.21;11.51;101261.42;107473;1276;108228;-75
2022/03/13 07:40:31;;;;;;;46.70;35.50;;;;;;;31.21;11.17;101259.95;107314;1276;137849;-75
2022/03/13 07:43:07;;;;;;;45.40;35.00;;;;;;;31.10;11.12;101262.77;107421;1276;96550;-72
2022/03/13 07:45:44;;;;;;;47.00;36.40;;;;;;;30.93;11.03;101266.66;107339;1276;137793;-73
2022/03/13 07:48:17;;;;;;;45.50;35.20;;;;;;;30.96;11.03;101259.84;107459;1277;112595;-73
2022/03/13 07:50:50;;;;;;;44.00;34.90;;;;;;;31.00;11.20;101261.59;107365;1276;138152;-73
2022/03/13 07:53:26;;;;;;;46.30;37.30;;;;;;;31.21;11.13;101265.56;107435;1276;108428;-73
2022/03/13 07:56:00;;;;;;;50.70;39.10;;;;;;;31.30;10.90;101267.38;107308;1277;96660;-73
2022/03/13 07:58:36;;;;;;;48.70;37.80;;;;;;;31.28;10.73;101266.66;107380;1276;138716;-73
2022/03/13 08:01:11;;;;;;;50.40;39.90;;;;;;;31.27;10.84;101267.12;107421;1276;112008;-74
2022/03/13 08:03:47;;;;;;;46.40;36.60;;;;;;;31.32;10.90;101270.19;107332;1276;139047;-73
2022/03/13 08:06:20;;;;;;;49.70;36.90;;;;;;;31.42;10.57;101269.15;107435;1276;108192;-74
2022/03/13 08:08:55;;;;;;;45.50;34.90;;;;;;;31.41;10.68;101265.10;107285;1276;138514;-73
2022/03/13 08:11:32;;;;;;;40.90;32.10;;;;;;;31.51;10.67;101272.11;107475;1276;96258;-75
2022/03/13 08:14:07;;;;;;;44.10;33.30;;;;;;;31.51;10.45;101271.43;107446;1276;113687;-74
2022/03/13 08:16:43;;;;;;;46.60;34.70;;;;;;;31.46;10.25;101268.52;107325;1276;138128;-75
2022/03/13 08:19:22;;;;;;;38.30;31.90;;;;;;;31.21;10.06;101273.30;107428;1276;106294;-74
2022/03/13 08:21:55;;;;;;;41.30;33.10;;;;;;;30.77;10.17;101272.06;107319;1276;138493;-73
2022/03/13 08:24:28;;;;;;;45.90;35.20;;;;;;;30.44;10.32;101273.56;107461;1277;95697;-73
2022/03/13 08:27:02;;;;;;;38.30;31.90;;;;;;;30.21;10.60;101275.33;107317;1276;138197;-73
2022/03/13 08:29:37;;;;;;;43.80;33.30;;;;;;;30.10;10.54;101276.95;107498;1276;108746;-72
2022/03/13 08:32:10;;;;;;;44.10;34.00;;;;;;;30.06;10.69;101278.00;107306;1277;108405;-72
2022/03/13 08:34:45;;;;;;;41.20;31.40;;;;;;;30.14;10.76;101276.23;107220;1277;138091;-73
2022/03/13 08:37:19;;;;;;;38.80;30.00;;;;;;;30.14;10.41;101278.55;107451;1277;96259;-74
2022/03/13 08:39:53;;;;;;;38.80;31.40;;;;;;;29.83;10.50;101275.80;107135;1277;137824;-73
2022/03/13 08:42:31;;;;;;;35.80;29.30;;;;;;;29.72;10.51;101274.35;107437;1277;108100;-74
2022/03/13 08:45:05;;;;;;;37.70;28.10;;;;;;;29.78;10.75;101277.16;107226;1276;139594;-74
2022/03/13 08:47:41;;;;;;;34.30;26.40;;;;;;;29.94;10.97;101277.73;107285;1277;95792;-74
2022/03/13 08:50:19;;;;;;;35.40;27.40;;;;;;;30.04;10.69;101278.23;107283;1277;96056;-74
2022/03/13 08:52:53;;;;;;;30.90;23.70;;;;;;;30.09;10.66;101284.14;107028;1277;138602;-75
2022/03/13 08:55:33;;;;;;;32.50;25.40;;;;;;;29.98;10.80;101283.42;107512;1276;107987;-75
2022/03/13 08:58:06;;;;;;;30.70;23.80;;;;;;;29.95;10.94;101280.89;107340;1276;138617;-74
2022/03/13 09:00:41;;;;;;;31.40;24.30;;;;;;;29.84;10.67;101279.79;107440;1275;96172;-74
2022/03/13 09:03:16;;;;;;;31.00;23.20;;;;;;;29.59;10.55;101282.98;107266;1277;138713;-74
2022/03/13 09:05:50;;;;;;;29.50;22.30;;;;;;;29.47;10.86;101279.95;107427;1277;110223;-75
2022/03/13 09:08:25;;;;;;;27.00;22.10;;;;;;;29.38;10.99;101278.49;107114;1279;109789;-73
2022/03/13 09:10:58;;;;;;;31.20;22.60;;;;;;;29.29;11.01;101281.89;107235;1277;138286;-74
2022/03/13 09:13:31;;;;;;;27.90;20.40;;;;;;;29.19;11.07;101283.91;107378;1277;96233;-74
2022/03/13 09:16:05;;;;;;;30.70;22.50;;;;;;;29.07;11.31;101285.35;107312;1277;137976;-74
2022/03/13 09:18:47;;;;;;;28.70;21.90;;;;;;;29.06;11.22;101284.95;107150;1277;111466;-74
2022/03/13 09:21:23;;;;;;;27.50;21.80;;;;;;;29.03;11.58;101285.23;107224;1277;138296;-74
2022/03/13 09:23:56;;;;;;;30.70;23.50;;;;;;;29.05;11.82;101285.97;107277;1277;108874;-76
2022/03/13 09:26:30;;;;;;;33.30;26.00;;;;;;;29.17;11.61;101289.98;107170;1278;96095;-77
2022/03/13 09:29:03;;;;;;;26.80;20.00;;;;;;;29.28;11.76;101292.02;107093;1277;137980;-75
2022/03/13 09:31:38;;;;;;;25.60;20.10;;;;;;;29.44;11.66;101293.49;107227;1277;111391;-75
2022/03/13 09:34:11;;;;;;;22.60;17.70;;;;;;;29.59;11.34;101287.41;107294;1277;138006;-75
2022/03/13 09:36:46;;;;;;;27.40;21.10;;;;;;;29.54;11.27;101290.80;107403;1277;109003;-75
2022/03/13 09:39:19;;;;;;;24.40;19.90;;;;;;;29.37;11.40;101296.65;107219;1277;139003;-74
2022/03/13 09:41:52;;;;;;;27.80;22.20;;;;;;;29.17;11.53;101296.08;107436;1277;96006;-74
2022/03/13 09:44:26;;;;;;;23.70;18.90;;;;;;;29.14;11.68;101292.92;107093;1277;111386;-75
2022/03/13 09:46:59;;;;;;;21.80;18.50;;;;;;;29.12;11.73;101294.20;107260;1277;138782;-75
2022/03/13 09:49:34;;;;;;;26.60;19.70;;;;;;;28.66;11.12;101300.10;107405;1277;108175;-74
2022/03/13 09:52:08;;;;;;;28.60;20.50;;;;;;;27.90;11.43;101305.33;107268;1277;137965;-74
2022/03/13 09:54:40;;;;;;;25.30;20.80;;;;;;;27.22;11.56;101298.88;107387;1277;96172;-74
2022/03/13 09:57:14;;;;;;;26.90;20.10;;;;;;;26.57;11.73;101297.61;107305;1277;138006;-75
2022/03/13 09:59:47;;;;;;;29.60;21.50;;;;;;;26.04;12.11;101295.49;107400;1276;108573;-74
2022/03/13 10:02:20;;;;;;;29.70;22.10;;;;;;;25.52;12.50;101295.52;107381;1276;108560;-74
2022/03/13 10:04:56;;;;;;;27.40;20.80;;;;;;;25.22;12.89;101293.77;107274;1276;138201;-74
2022/03/13 10:07:30;;;;;;;28.30;22.20;;;;;;;25.02;13.20;101292.27;107432;1275;96304;-74
2022/03/13 10:10:13;;;;;;;28.50;22.60;;;;;;;24.97;13.25;101291.58;107293;1276;138753;-74
2022/03/13 10:12:47;;;;;;;27.10;21.70;;;;;;;24.91;13.57;101292.17;107375;1277;108606;-74
2022/03/13 10:15:20;;;;;;;31.40;23.20;;;;;;;24.93;13.57;101293.60;107254;1277;138620;-74
2022/03/13 10:17:54;;;;;;;29.70;23.10;;;;;;;24.93;13.65;101291.69;107337;1277;96310;-75
2022/03/13 10:20:30;;;;;;;30.70;24.30;;;;;;;25.03;13.75;101292.34;107352;1277;95976;-74
2022/03/13 10:23:11;;;;;;;30.50;22.10;;;;;;;25.07;13.49;101292.25;107162;1276;138550;-74
2022/03/13 10:25:46;;;;;;;29.40;22.50;;;;;;;24.71;13.64;101296.76;107423;1276;107896;-74
2022/03/13 10:28:22;;;;;;;33.40;23.60;;;;;;;24.27;13.74;101299.25;107300;1276;140252;-74
2022/03/13 10:31:15;;;;;;;28.60;24.10;;;;;;;24.03;14.11;101297.94;107415;1276;96181;-74
2022/03/13 10:34:02;;;;;;;28.30;22.50;;;;;;;23.75;13.87;101294.08;107276;1276;138678;-74
2022/03/13 10:36:44;;;;;;;31.80;23.00;;;;;;;23.43;14.41;101294.69;107374;1277;112981;-74
2022/03/13 10:39:21;;;;;;;29.90;22.20;;;;;;;23.41;14.63;101294.70;107183;1277;138674;-73
2022/03/13 10:42:01;;;;;;;30.90;21.60;;;;;;;23.51;14.92;101287.79;107376;1276;108870;-74
2022/03/13 10:44:52;;;;;;;29.50;21.80;;;;;;;23.78;15.08;101282.92;107388;1276;95951;-75
2022/03/13 10:47:31;;;;;;;26.70;20.90;;;;;;;23.92;14.91;101277.42;107341;1276;138102;-74
2022/03/13 10:50:04;;;;;;;27.90;20.60;;;;;;;23.85;14.40;101283.08;107450;1276;112639;-75
2022/03/13 10:52:43;;;;;;;29.20;20.60;;;;;;;23.25;14.57;101283.34;107317;1275;139211;-75
2022/03/13 10:55:24;;;;;;;26.80;21.10;;;;;;;22.81;14.89;101284.02;107392;1276;110492;-74
2022/03/13 10:57:59;;;;;;;29.30;21.20;;;;;;;22.41;15.20;101282.09;107324;1276;139447;-74
2022/03/13 11:00:31;;;;;;;30.50;24.10;;;;;;;22.10;15.59;101284.28;107443;1276;96185;-75
2022/03/13 11:03:17;;;;;;;23.90;18.00;;;;;;;21.98;15.95;101280.37;107330;1276;139490;-73
2022/03/13 11:05:49;;;;;;;24.00;17.90;;;;;;;21.90;15.98;101282.53;107438;1276;108786;-75
2022/03/13 11:08:24;;;;;;;22.00;17.00;;;;;;;21.40;16.07;101279.80;107408;1276;107972;-74
2022/03/13 11:10:58;;;;;;;25.10;18.00;;;;;;;21.30;16.54;101279.84;107261;1274;138386;-74
2022/03/13 11:13:33;;;;;;;22.60;17.00;;;;;;;21.08;16.39;101278.15;107483;1276;96102;-74
2022/03/13 11:16:09;;;;;;;20.70;15.90;;;;;;;21.00;16.78;101273.66;107320;1276;138100;-74
2022/03/13 11:18:51;;;;;;;22.00;15.20;;;;;;;21.01;16.84;101274.66;107404;1275;107688;-75
2022/03/13 11:21:25;;;;;;;22.50;15.60;;;;;;;20.72;16.82;101272.63;107216;1276;138745;-75
2022/03/13 11:24:00;;;;;;;21.90;15.30;;;;;;;20.38;17.04;101270.33;107448;1276;96059;-74
2022/03/13 11:26:36;;;;;;;20.20;15.30;;;;;;;20.19;17.37;101267.34;107396;1276;96089;-74
2022/03/13 11:29:10;;;;;;;22.50;15.60;;;;;;;20.19;17.59;101267.17;107362;1276;137985;-75
2022/03/13 11:31:47;;;;;;;20.20;15.00;;;;;;;20.10;17.48;101265.77;107418;1276;108375;-74
2022/03/13 11:34:22;;;;;;;23.60;14.00;;;;;;;19.57;17.43;101268.98;107331;1276;139034;-74
2022/03/13 11:36:55;;;;;;;20.20;14.60;;;;;;;19.16;17.82;101269.72;107410;1276;96248;-75